Time;durP1;ratioP1;P1;durP2;ratioP2;P2;SDS_P1;SDS_P2;PMS_P1;PMS_P2;Temp;Humidity;BMP_temperature;BMP_pressure;BME280_temperature;BME280_humidity;BME280_pressure;Samples;Min_cycle;Max_cycle;Signal;HPM_P1;HPM_P2
2023/12/17 00:01:33;;;;;;;6.72;2.80;;;;;;;;;;10455381;28;20328;-75
2023/12/17 00:06:37;;;;;;;6.43;3.00;;;;;;;;;;10452766;28;20052;-74
2023/12/17 00:11:42;;;;;;;2.70;1.67;;;;;;;;;;10458803;28;20036;-74
2023/12/17 00:16:44;;;;;;;1.63;1.10;;;;;;;;;;10454777;28;20058;-74
2023/12/17 00:21:47;;;;;;;4.47;2.70;;;;;;;;;;10435834;28;22153;-75
2023/12/17 00:26:54;;;;;;;5.60;2.40;;;;;;;;;;10455638;28;20131;-76
2023/12/17 00:31:57;;;;;;;13.97;5.17;;;;;;;;;;10460782;28;20048;-75
2023/12/17 00:37:03;;;;;;;7.67;2.50;;;;;;;;;;10460192;28;20049;-75
2023/12/17 00:42:07;;;;;;;5.60;2.40;;;;;;;;;;10458274;28;20044;-75
2023/12/17 00:47:09;;;;;;;6.95;2.50;;;;;;;;;;10457882;28;20131;-76
2023/12/17 00:52:12;;;;;;;4.63;2.43;;;;;;;;;;10454957;28;20041;-74
2023/12/17 00:57:16;;;;;;;6.33;2.57;;;;;;;;;;10457786;28;20120;-75
2023/12/17 01:02:19;;;;;;;7.00;2.72;;;;;;;;;;10459755;28;20078;-75
2023/12/17 01:07:21;;;;;;;9.50;3.10;;;;;;;;;;10460231;28;20063;-75
2023/12/17 01:12:25;;;;;;;5.10;2.73;;;;;;;;;;10454762;28;20044;-75
2023/12/17 01:17:28;;;;;;;9.30;3.13;;;;;;;;;;10457645;28;20154;-73
2023/12/17 01:22:33;;;;;;;5.60;2.50;;;;;;;;;;10461298;28;20675;-75
2023/12/17 01:27:37;;;;;;;5.63;2.33;;;;;;;;;;10459150;28;20047;-74
2023/12/17 01:32:40;;;;;;;;;;;;;;;;;;10459751;28;20041;-74
2023/12/17 01:37:42;;;;;;;4.63;2.37;;;;;;;;;;10455955;28;19928;-73
2023/12/17 01:42:46;;;;;;;4.07;2.60;;;;;;;;;;10454621;28;20208;-74
2023/12/17 01:47:49;;;;;;;5.53;2.58;;;;;;;;;;10458044;28;20120;-73
2023/12/17 01:52:52;;;;;;;4.93;2.87;;;;;;;;;;10455498;28;20127;-76
2023/12/17 01:57:57;;;;;;;4.37;2.03;;;;;;;;;;10456116;28;20127;-76
2023/12/17 02:03:00;;;;;;;4.63;2.30;;;;;;;;;;10452817;28;20063;-75
2023/12/17 02:08:03;;;;;;;6.23;2.50;;;;;;;;;;10463399;28;20137;-75
2023/12/17 02:13:09;;;;;;;5.23;2.43;;;;;;;;;;10454048;28;21599;-74
2023/12/17 02:18:12;;;;;;;3.53;2.03;;;;;;;;;;10455409;28;20182;-75
2023/12/17 02:23:16;;;;;;;3.23;1.90;;;;;;;;;;10455883;28;20537;-77
2023/12/17 02:28:18;;;;;;;3.28;1.67;;;;;;;;;;10470311;28;20041;-76
2023/12/17 02:33:21;;;;;;;3.90;1.80;;;;;;;;;;10457749;28;20466;-74
2023/12/17 02:38:25;;;;;;;3.00;1.67;;;;;;;;;;10455606;28;20075;-75
2023/12/17 02:43:28;;;;;;;4.22;1.45;;;;;;;;;;10453753;28;20132;-75
2023/12/17 02:48:31;;;;;;;3.97;2.00;;;;;;;;;;10453418;28;20469;-74
2023/12/17 02:53:35;;;;;;;5.10;2.70;;;;;;;;;;10438946;28;20076;-74
2023/12/17 02:58:39;;;;;;;4.15;1.85;;;;;;;;;;10453461;28;20510;-74
2023/12/17 03:03:41;;;;;;;5.75;1.80;;;;;;;;;;10454319;28;20055;-74
2023/12/17 03:08:45;;;;;;;3.83;1.40;;;;;;;;;;10436738;28;20051;-73
2023/12/17 03:13:48;;;;;;;2.80;1.77;;;;;;;;;;10452937;28;20043;-73
2023/12/17 03:18:51;;;;;;;3.70;1.57;;;;;;;;;;10453755;28;20063;-74
2023/12/17 03:23:55;;;;;;;0.80;0.63;;;;;;;;;;10451459;28;20493;-74
2023/12/17 03:28:58;;;;;;;3.33;1.45;;;;;;;;;;10451937;28;20064;-74
2023/12/17 03:34:01;;;;;;;1.27;0.70;;;;;;;;;;10433097;28;20047;-74
2023/12/17 03:39:06;;;;;;;5.80;2.10;;;;;;;;;;10453735;28;20044;-74
2023/12/17 03:44:09;;;;;;;4.97;1.80;;;;;;;;;;10452321;28;20041;-74
2023/12/17 03:49:11;;;;;;;4.20;1.80;;;;;;;;;;10437318;28;20049;-75
2023/12/17 03:54:15;;;;;;;4.00;1.67;;;;;;;;;;10452031;28;20194;-74
2023/12/17 03:59:18;;;;;;;3.13;1.40;;;;;;;;;;10453035;28;20067;-75
2023/12/17 04:04:20;;;;;;;4.80;1.80;;;;;;;;;;10455361;28;20139;-76
2023/12/17 04:09:25;;;;;;;3.17;1.50;;;;;;;;;;10452447;28;20044;-74
2023/12/17 04:14:27;;;;;;;0.30;0.30;;;;;;;;;;10447908;28;20045;-74
2023/12/17 04:19:30;;;;;;;1.90;1.30;;;;;;;;;;10451880;28;20506;-74
2023/12/17 04:24:34;;;;;;;1.27;0.80;;;;;;;;;;10450762;28;20051;-74
2023/12/17 04:29:36;;;;;;;2.78;1.45;;;;;;;;;;10451289;28;20575;-74
2023/12/17 04:34:39;;;;;;;4.60;1.10;;;;;;;;;;10448463;28;20082;-75
2023/12/17 04:39:43;;;;;;;1.47;0.90;;;;;;;;;;10452823;28;20045;-75
2023/12/17 04:44:45;;;;;;;2.78;0.90;;;;;;;;;;10451475;28;20040;-75
2023/12/17 04:49:48;;;;;;;0.63;0.63;;;;;;;;;;10451252;28;20453;-75
2023/12/17 04:54:52;;;;;;;3.10;1.47;;;;;;;;;;10454346;28;20054;-75
2023/12/17 04:59:56;;;;;;;3.88;1.75;;;;;;;;;;10450461;28;20031;-75
2023/12/17 05:04:59;;;;;;;;;;;;;;;;;;10450047;28;20494;-73
2023/12/17 05:10:03;;;;;;;4.87;1.60;;;;;;;;;;10455541;28;20114;-75
2023/12/17 05:15:07;;;;;;;0.27;0.27;;;;;;;;;;10421019;28;20060;-76
2023/12/17 05:20:10;;;;;;;3.10;1.40;;;;;;;;;;10460215;28;20044;-75
2023/12/17 05:25:14;;;;;;;4.30;1.67;;;;;;;;;;10455747;28;20493;-75
2023/12/17 05:30:18;;;;;;;2.80;1.30;;;;;;;;;;10457909;28;20048;-74
2023/12/17 05:35:21;;;;;;;2.77;1.57;;;;;;;;;;10457602;28;20134;-74
2023/12/17 05:40:25;;;;;;;3.47;1.80;;;;;;;;;;10459083;28;20115;-75
2023/12/17 05:45:27;;;;;;;4.43;1.52;;;;;;;;;;10459554;28;20182;-74
2023/12/17 05:50:30;;;;;;;4.23;1.63;;;;;;;;;;10458697;28;20055;-75
2023/12/17 05:55:34;;;;;;;3.03;1.60;;;;;;;;;;10457684;28;20434;-73
2023/12/17 06:00:37;;;;;;;5.70;1.90;;;;;;;;;;10457731;28;20406;-74
2023/12/17 06:05:39;;;;;;;3.13;1.90;;;;;;;;;;10460647;28;20378;-74
2023/12/17 06:10:43;;;;;;;5.30;2.23;;;;;;;;;;10455122;28;20060;-75
2023/12/17 06:15:46;;;;;;;3.75;1.88;;;;;;;;;;10456663;28;22024;-75
2023/12/17 06:20:48;;;;;;;3.87;1.90;;;;;;;;;;10454231;28;20057;-74
2023/12/17 06:25:53;;;;;;;3.87;1.80;;;;;;;;;;10452827;28;20462;-74
2023/12/17 06:30:55;;;;;;;6.73;2.50;;;;;;;;;;10456633;28;20078;-74
2023/12/17 06:35:58;;;;;;;6.70;2.33;;;;;;;;;;10452155;28;20048;-75
2023/12/17 06:41:03;;;;;;;4.13;2.50;;;;;;;;;;10456188;28;20923;-76
2023/12/17 06:46:07;;;;;;;2.87;1.63;;;;;;;;;;10455048;28;20124;-76
2023/12/17 06:51:10;;;;;;;3.53;1.93;;;;;;;;;;10462286;28;20178;-76
2023/12/17 06:56:14;;;;;;;6.60;2.40;;;;;;;;;;10465415;28;20402;-74
2023/12/17 07:01:17;;;;;;;3.45;2.00;;;;;;;;;;10462368;28;20069;-75
2023/12/17 07:06:20;;;;;;;4.47;2.13;;;;;;;;;;10461413;28;20286;-75
2023/12/17 07:11:24;;;;;;;4.93;2.07;;;;;;;;;;10461110;28;20102;-74
2023/12/17 07:16:28;;;;;;;8.68;2.42;;;;;;;;;;10462090;28;20041;-75
2023/12/17 07:21:30;;;;;;;7.72;2.67;;;;;;;;;;10476358;28;20151;-76
2023/12/17 07:26:35;;;;;;;4.93;2.23;;;;;;;;;;10457965;28;20439;-75
2023/12/17 07:31:37;;;;;;;5.80;2.30;;;;;;;;;;10460079;28;20481;-75
2023/12/17 07:36:40;;;;;;;5.37;2.30;;;;;;;;;;10455682;28;20041;-75
2023/12/17 07:41:44;;;;;;;4.75;2.38;;;;;;;;;;10455926;28;20444;-74
2023/12/17 07:46:47;;;;;;;5.85;2.40;;;;;;;;;;10461271;28;20040;-75
2023/12/17 07:51:49;;;;;;;4.03;2.00;;;;;;;;;;10458161;28;20410;-75
2023/12/17 07:56:53;;;;;;;6.50;2.33;;;;;;;;;;10458049;28;20500;-75
2023/12/17 08:01:56;;;;;;;;;;;;;;;;;;10454251;28;20061;-74
2023/12/17 08:06:59;;;;;;;4.40;2.28;;;;;;;;;;10442613;28;19943;-75
2023/12/17 08:12:03;;;;;;;7.47;3.25;;;;;;;;;;10457425;28;20046;-75
2023/12/17 08:17:06;;;;;;;6.60;2.40;;;;;;;;;;10438419;28;20183;-75
2023/12/17 08:22:09;;;;;;;4.45;1.95;;;;;;;;;;10456708;28;20311;-75
2023/12/17 08:27:13;;;;;;;1.88;1.50;;;;;;;;;;10455689;28;20156;-75
2023/12/17 08:32:16;;;;;;;2.45;1.63;;;;;;;;;;10454655;28;20036;-75
2023/12/17 08:37:18;;;;;;;1.38;1.00;;;;;;;;;;10456945;28;20589;-75
2023/12/17 08:42:23;;;;;;;1.25;1.15;;;;;;;;;;10459542;28;20482;-74
2023/12/17 08:47:26;;;;;;;2.40;1.58;;;;;;;;;;10457586;28;20559;-75
2023/12/17 08:52:29;;;;;;;2.65;1.65;;;;;;;;;;10465296;28;20535;-74
2023/12/17 08:57:33;;;;;;;2.92;1.80;;;;;;;;;;10463243;28;20043;-76
2023/12/17 09:02:35;;;;;;;;;;;;;;;;;;10463687;28;20036;-75
2023/12/17 09:07:37;;;;;;;2.80;2.10;;;;;;;;;;10465049;28;19920;-75
2023/12/17 09:12:42;;;;;;;2.85;2.25;;;;;;;;;;10459343;28;20110;-76
2023/12/17 09:17:45;;;;;;;3.05;2.03;;;;;;;;;;10454729;28;20862;-75
2023/12/17 09:22:48;;;;;;;3.40;2.17;;;;;;;;;;10458895;28;20095;-76
2023/12/17 09:27:52;;;;;;;2.73;2.23;;;;;;;;;;10461271;28;20053;-75
2023/12/17 09:32:55;;;;;;;2.88;2.20;;;;;;;;;;10460853;28;20785;-76
2023/12/17 09:37:58;;;;;;;2.60;2.00;;;;;;;;;;10462066;28;20515;-75
2023/12/17 09:43:03;;;;;;;2.30;1.90;;;;;;;;;;10454598;28;20174;-75
2023/12/17 09:48:05;;;;;;;4.22;2.10;;;;;;;;;;10460223;28;20047;-75
2023/12/17 09:53:08;;;;;;;3.80;2.15;;;;;;;;;;10458626;28;20083;-74
2023/12/17 09:58:12;;;;;;;5.07;2.60;;;;;;;;;;10456941;28;20044;-76
2023/12/17 10:03:18;;;;;;;5.38;3.03;;;;;;;;;;10460681;28;20063;-74
2023/12/17 10:08:21;;;;;;;6.45;3.00;;;;;;;;;;10464887;28;20063;-75
2023/12/17 10:13:23;;;;;;;;;;;;;;;;;;10460307;28;20044;-76
2023/12/17 10:18:28;;;;;;;3.13;2.57;;;;;;;;;;10459136;28;19929;-75
2023/12/17 10:23:45;;;;;;;5.13;2.53;;;;;;;;;;10457636;28;20506;-74
2023/12/17 10:28:50;;;;;;;4.10;2.35;;;;;;;;;;10455967;28;20140;-75
2023/12/17 10:33:57;;;;;;;4.18;2.75;;;;;;;;;;10460237;28;20166;-76
2023/12/17 10:39:02;;;;;;;3.50;2.72;;;;;;;;;;10459443;28;20064;-76
2023/12/17 10:44:05;;;;;;;3.30;2.55;;;;;;;;;;10458310;28;20052;-75
2023/12/17 10:49:10;;;;;;;3.85;2.83;;;;;;;;;;10459582;28;20140;-74
2023/12/17 10:54:13;;;;;;;4.97;3.05;;;;;;;;;;10455565;28;20473;-75
2023/12/17 10:59:18;;;;;;;3.63;2.95;;;;;;;;;;10454560;28;20523;-75
2023/12/17 11:04:44;;;;;;;4.43;2.55;;;;;;;;;;10454084;28;20670;-75
2023/12/17 11:09:47;;;;;;;2.88;2.55;;;;;;;;;;10453850;28;20549;-78
2023/12/17 11:14:49;;;;;;;3.90;3.03;;;;;;;;;;10464473;28;20037;-74
2023/12/17 11:19:52;;;;;;;;;;;;;;;;;;10454020;28;20048;-75
2023/12/17 11:24:57;;;;;;;4.13;3.08;;;;;;;;;;10451997;28;19929;-74
2023/12/17 11:29:59;;;;;;;6.53;3.05;;;;;;;;;;10454157;28;20115;-76
2023/12/17 11:35:02;;;;;;;;;;;;;;;;;;10450719;28;20116;-74
2023/12/17 11:40:07;;;;;;;3.40;2.70;;;;;;;;;;10451640;28;20451;-76
2023/12/17 11:51:36;;;;;;;10.73;3.17;;;;;;;;;;10453624;28;20059;-74
2023/12/17 11:57:15;;;;;;;4.85;2.83;;;;;;;;;;10453819;28;20044;-75
2023/12/17 12:02:27;;;;;;;3.40;2.53;;;;;;;;;;10451350;28;20143;-74
2023/12/17 12:07:31;;;;;;;4.88;2.85;;;;;;;;;;10454662;28;20041;-75
2023/12/17 12:12:34;;;;;;;5.13;3.10;;;;;;;;;;10456021;28;20127;-75
2023/12/17 12:17:39;;;;;;;7.75;3.60;;;;;;;;;;10451457;28;20131;-75
2023/12/17 12:22:45;;;;;;;4.57;2.80;;;;;;;;;;10454318;28;20047;-76
2023/12/17 12:27:51;;;;;;;5.32;3.58;;;;;;;;;;10454594;28;20060;-76
2023/12/17 12:32:55;;;;;;;5.68;3.70;;;;;;;;;;10450786;28;20499;-75
2023/12/17 12:37:58;;;;;;;3.90;3.08;;;;;;;;;;10450484;28;20100;-76
2023/12/17 12:43:02;;;;;;;6.40;3.10;;;;;;;;;;10451313;28;20041;-74
2023/12/17 12:48:15;;;;;;;4.20;2.95;;;;;;;;;;10436179;28;20371;-74
2023/12/17 12:53:19;;;;;;;4.03;2.80;;;;;;;;;;10452401;28;20409;-76
2023/12/17 12:58:30;;;;;;;3.67;2.58;;;;;;;;;;10448671;28;20770;-76
2023/12/17 13:03:34;;;;;;;2.85;2.22;;;;;;;;;;10448721;28;20124;-75
2023/12/17 13:08:37;;;;;;;5.03;3.47;;;;;;;;;;10450978;28;20044;-75
2023/12/17 13:13:40;;;;;;;9.10;4.85;;;;;;;;;;10455768;28;20053;-74
2023/12/17 13:18:44;;;;;;;3.70;2.83;;;;;;;;;;10451132;28;20544;-76
2023/12/17 13:23:49;;;;;;;4.55;2.72;;;;;;;;;;10450528;28;20519;-76
2023/12/17 13:28:54;;;;;;;2.83;1.98;;;;;;;;;;10453187;28;20681;-75
2023/12/17 13:33:58;;;;;;;4.25;2.00;;;;;;;;;;10455121;28;20133;-75
2023/12/17 13:39:01;;;;;;;5.13;2.10;;;;;;;;;;10455335;28;20045;-75
2023/12/17 13:44:04;;;;;;;5.72;2.30;;;;;;;;;;10439240;28;20048;-76
2023/12/17 13:49:07;;;;;;;5.47;2.72;;;;;;;;;;10459156;28;20702;-76
2023/12/17 13:54:11;;;;;;;6.10;2.65;;;;;;;;;;10457983;28;20075;-76
2023/12/17 13:59:14;;;;;;;5.45;2.30;;;;;;;;;;10456029;28;20429;-75
2023/12/17 14:04:18;;;;;;;8.63;3.83;;;;;;;;;;10454273;28;20473;-75
2023/12/17 14:09:22;;;;;;;7.07;3.63;;;;;;;;;;10455165;28;20578;-75
2023/12/17 14:14:25;;;;;;;7.38;3.70;;;;;;;;;;10454256;28;20737;-75
2023/12/17 14:19:29;;;;;;;8.82;3.70;;;;;;;;;;10444321;28;20049;-75
2023/12/17 14:24:32;;;;;;;6.95;3.15;;;;;;;;;;10456262;28;20134;-75
2023/12/17 14:29:37;;;;;;;4.60;2.97;;;;;;;;;;10455485;28;20694;-75
2023/12/17 14:34:41;;;;;;;7.05;3.63;;;;;;;;;;10446784;28;20053;-75
2023/12/17 14:39:44;;;;;;;5.85;3.47;;;;;;;;;;10466375;28;20056;-75
2023/12/17 14:44:46;;;;;;;7.55;3.50;;;;;;;;;;10449557;28;20045;-75
2023/12/17 14:49:50;;;;;;;6.63;2.60;;;;;;;;;;10448985;28;20072;-75
2023/12/17 14:54:53;;;;;;;;;;;;;;;;;;10454276;28;20033;-75
2023/12/17 14:59:56;;;;;;;6.40;3.05;;;;;;;;;;10454357;28;19928;-75
2023/12/17 15:05:00;;;;;;;7.30;2.70;;;;;;;;;;10453251;28;20075;-75
2023/12/17 15:10:05;;;;;;;4.90;2.35;;;;;;;;;;10454309;28;20569;-74
2023/12/17 15:15:10;;;;;;;5.70;2.13;;;;;;;;;;10452879;28;20060;-75
2023/12/17 15:20:15;;;;;;;4.00;1.88;;;;;;;;;;10455047;28;20048;-76
2023/12/17 15:25:18;;;;;;;;;;;;;;;;;;10453399;28;20574;-75
2023/12/17 15:30:20;;;;;;;4.85;2.20;;;;;;;;;;10452080;28;20023;-76
2023/12/17 15:35:24;;;;;;;5.97;2.47;;;;;;;;;;10449543;28;20071;-76
2023/12/17 15:40:29;;;;;;;5.15;2.30;;;;;;;;;;10452411;28;20378;-76
2023/12/17 15:45:33;;;;;;;4.82;2.13;;;;;;;;;;10439318;28;20044;-74
2023/12/17 15:50:38;;;;;;;2.70;1.85;;;;;;;;;;10451823;28;20604;-75
2023/12/17 15:55:41;;;;;;;5.00;2.20;;;;;;;;;;10448850;28;20061;-76
2023/12/17 16:00:45;;;;;;;7.07;2.80;;;;;;;;;;10463636;28;20049;-73
2023/12/17 16:05:48;;;;;;;;;;;;;;;;;;10461113;28;20059;-74
2023/12/17 16:10:52;;;;;;;5.32;2.40;;;;;;;;;;10451984;28;20338;-75
2023/12/17 16:15:55;;;;;;;8.25;2.78;;;;;;;;;;10451842;28;20052;-73
2023/12/17 16:20:57;;;;;;;8.00;2.92;;;;;;;;;;10449017;28;20080;-75
2023/12/17 16:26:01;;;;;;;8.63;3.03;;;;;;;;;;10453787;28;20041;-75
2023/12/17 16:31:05;;;;;;;7.40;3.25;;;;;;;;;;10479701;28;20426;-75
2023/12/17 16:36:07;;;;;;;6.50;2.80;;;;;;;;;;10481768;28;20048;-75
2023/12/17 16:41:12;;;;;;;9.85;2.72;;;;;;;;;;10481155;28;20052;-76
2023/12/17 16:46:15;;;;;;;7.45;3.58;;;;;;;;;;10474973;28;20402;-76
2023/12/17 16:51:18;;;;;;;8.27;3.75;;;;;;;;;;10476697;28;20068;-76
2023/12/17 16:56:23;;;;;;;9.77;3.92;;;;;;;;;;10471867;28;20032;-75
2023/12/17 17:01:26;;;;;;;;;;;;;;;;;;10491862;28;20072;-76
2023/12/17 17:06:29;;;;;;;8.88;3.47;;;;;;;;;;10475713;28;20374;-74
2023/12/17 17:11:33;;;;;;;14.55;5.07;;;;;;;;;;10487595;28;20127;-75
2023/12/17 17:16:36;;;;;;;8.32;4.03;;;;;;;;;;10485053;28;20497;-75
2023/12/17 17:21:38;;;;;;;8.85;3.80;;;;;;;;;;10470095;28;20127;-75
2023/12/17 17:26:43;;;;;;;8.70;3.72;;;;;;;;;;10463960;28;20056;-74
2023/12/17 17:31:50;;;;;;;13.07;4.70;;;;;;;;;;10459792;28;20084;-75
2023/12/17 17:36:53;;;;;;;9.55;4.07;;;;;;;;;;10458716;28;20698;-74
2023/12/17 17:41:57;;;;;;;15.80;5.55;;;;;;;;;;10472089;28;20173;-75
2023/12/17 17:47:00;;;;;;;13.32;4.05;;;;;;;;;;10458055;28;20473;-74
2023/12/17 17:52:02;;;;;;;11.98;5.20;;;;;;;;;;10454840;28;20114;-74
2023/12/17 17:57:06;;;;;;;13.13;4.88;;;;;;;;;;10456374;28;20037;-74
2023/12/17 18:02:10;;;;;;;12.43;5.45;;;;;;;;;;10457153;28;20044;-75
2023/12/17 18:07:12;;;;;;;13.48;4.45;;;;;;;;;;10457016;28;20045;-74
2023/12/17 18:12:16;;;;;;;8.77;4.30;;;;;;;;;;10461033;28;20133;-74
2023/12/17 18:17:19;;;;;;;19.40;7.18;;;;;;;;;;10442054;28;20437;-75
2023/12/17 18:22:23;;;;;;;9.35;5.05;;;;;;;;;;10453044;28;20058;-75
2023/12/17 19:58:58;;;;;;;29.80;11.52;;;;;;;;;;10112160;29;20048;-75
2023/12/17 20:11:23;;;;;;;22.58;10.02;;;;;;;;;;10377962;28;20044;-74
2023/12/17 20:16:27;;;;;;;30.70;10.57;;;;;;;;;;10468345;28;20466;-73
2023/12/17 20:21:30;;;;;;;24.00;9.07;;;;;;;;;;10481137;28;20058;-73
2023/12/17 20:26:33;;;;;;;23.88;10.00;;;;;;;;;;10482490;28;20068;-74
2023/12/17 20:31:40;;;;;;;26.05;10.68;;;;;;;;;;10479232;28;20064;-76
2023/12/17 20:36:44;;;;;;;27.70;11.02;;;;;;;;;;10479262;28;20258;-75
2023/12/17 20:41:47;;;;;;;23.00;10.13;;;;;;;;;;10480854;28;20482;-74
2023/12/17 20:46:51;;;;;;;20.90;8.85;;;;;;;;;;10489659;28;20049;-74
2023/12/17 20:51:54;;;;;;;;;;;;;;;;;;10483743;28;20046;-73
2023/12/17 20:56:59;;;;;;;25.42;10.65;;;;;;;;;;10492797;28;19955;-75
2023/12/17 21:02:03;;;;;;;23.95;10.13;;;;;;;;;;10491711;28;20044;-73
2023/12/17 21:07:06;;;;;;;22.70;10.25;;;;;;;;;;10487525;28;20044;-74
2023/12/17 21:12:08;;;;;;;22.63;9.48;;;;;;;;;;10492043;28;20071;-75
2023/12/17 21:17:12;;;;;;;27.13;10.00;;;;;;;;;;10491099;28;20032;-75
2023/12/17 21:22:15;;;;;;;22.75;9.77;;;;;;;;;;10485783;28;20124;-75
2023/12/17 21:27:23;;;;;;;23.57;9.10;;;;;;;;;;10478977;28;20044;-75
2023/12/17 21:32:27;;;;;;;22.33;7.60;;;;;;;;;;10486257;28;20066;-77
2023/12/17 21:37:29;;;;;;;20.13;7.78;;;;;;;;;;10485780;28;20041;-74
2023/12/17 21:42:32;;;;;;;20.42;8.43;;;;;;;;;;10489569;28;20632;-75
2023/12/17 21:47:36;;;;;;;16.37;6.43;;;;;;;;;;10475926;28;20150;-76
2023/12/17 21:52:38;;;;;;;12.73;6.45;;;;;;;;;;10484929;28;20047;-75
2023/12/17 21:57:41;;;;;;;15.43;6.22;;;;;;;;;;10477866;28;20485;-75
2023/12/17 22:02:48;;;;;;;6.88;2.75;;;;;;;;;;10478332;28;20049;-74
2023/12/17 22:07:51;;;;;;;10.17;4.17;;;;;;;;;;10482622;28;20068;-74
2023/12/17 22:12:54;;;;;;;13.48;4.75;;;;;;;;;;10476800;28;20118;-74
2023/12/17 22:17:58;;;;;;;14.33;4.90;;;;;;;;;;10486544;28;20139;-74
2023/12/17 22:23:01;;;;;;;;;;;;;;;;;;10485630;28;20055;-74
2023/12/17 22:28:04;;;;;;;15.25;4.80;;;;;;;;;;10479528;28;19968;-74
2023/12/17 22:33:09;;;;;;;8.50;4.38;;;;;;;;;;10476806;28;20514;-75
2023/12/17 22:38:11;;;;;;;5.38;2.67;;;;;;;;;;10477950;28;20033;-75
2023/12/17 22:43:14;;;;;;;11.67;4.93;;;;;;;;;;10469145;28;20051;-74
2023/12/17 22:48:18;;;;;;;12.32;5.45;;;;;;;;;;10470361;28;20176;-75
2023/12/17 22:53:20;;;;;;;;;;;;;;;;;;10475942;28;20041;-75
2023/12/17 22:58:23;;;;;;;9.15;3.78;;;;;;;;;;10479319;28;19921;-75
2023/12/17 23:03:28;;;;;;;7.90;3.43;;;;;;;;;;10479932;28;20036;-75
2023/12/17 23:08:30;;;;;;;8.00;3.92;;;;;;;;;;10473718;28;20037;-75
2023/12/17 23:13:33;;;;;;;9.70;3.47;;;;;;;;;;10472632;28;20486;-75
2023/12/17 23:18:37;;;;;;;9.15;3.72;;;;;;;;;;10478374;28;20063;-74
2023/12/17 23:23:39;;;;;;;;;;;;;;;;;;10471006;28;20143;-75
2023/12/17 23:28:42;;;;;;;11.73;5.07;;;;;;;;;;10469124;28;20492;-75
2023/12/17 23:33:46;;;;;;;90.00;17.83;;;;;;;;;;10475894;28;20163;-76
2023/12/17 23:38:49;;;;;;;40.25;8.68;;;;;;;;;;10466420;28;20045;-75
2023/12/17 23:43:52;;;;;;;33.28;7.80;;;;;;;;;;10473470;28;20482;-74
2023/12/17 23:48:57;;;;;;;13.63;5.40;;;;;;;;;;10478578;28;20071;-75
2023/12/17 23:53:59;;;;;;;8.60;2.30;;;;;;;;;;10471201;28;20048;-76
2023/12/17 23:59:02;;;;;;;13.00;5.37;;;;;;;;;;10474193;28;20048;-75
